Grand Canyon Natl Park, Arizona
Current Conditions -  °F | °C
As of 4:54 PM on Sunday 25 Jan 2015 (Local Time) from KGCN Reporting Station
Clear Clear  
Wind Chill: 50°   Ceiling: Unl
Heat Index: 50°   Visibility: 10mi
Dew Point: 21°   Wind: 10mph
Humidity: 32%   Direction: 70°ENE
Pressure: 30.32"   Gusts: NA
Location:  36.2°N, 112.07°W
Report Text: KGCN 252354Z 07009KT 10SM CLR 10/M06 A3032 RMK AO2 SLP252 T01001061 10122 20100 51001 $
Loading
Personal Weather Stations






























Interactive Weather Map New forecast layout! Learn more

10-Day Weather Forecast

Advertisements
Track Severe Weather on mobile